createdAt,value
2018-07-06T00:02:05.285Z,9.63
2018-07-06T00:04:52.153Z,9.30
2018-07-06T00:07:32.922Z,9.80
2018-07-06T00:10:19.937Z,10.03
2018-07-06T00:13:00.609Z,9.00
2018-07-06T00:15:41.317Z,10.00
2018-07-06T00:18:28.052Z,10.23
2018-07-06T00:21:14.736Z,9.60
2018-07-06T00:24:01.688Z,9.13
2018-07-06T00:26:42.733Z,9.20
2018-07-06T00:29:29.430Z,9.57
2018-07-06T00:32:16.354Z,9.67
2018-07-06T00:35:02.989Z,9.30
2018-07-06T00:37:49.857Z,10.83
2018-07-06T00:40:36.465Z,11.10
2018-07-06T00:43:23.497Z,10.80
2018-07-06T00:46:10.310Z,11.33
2018-07-06T00:48:57.154Z,11.03
2018-07-06T00:51:37.824Z,11.93
2018-07-06T00:54:18.658Z,11.03
2018-07-06T00:57:05.463Z,11.37
2018-07-06T00:59:52.141Z,11.47
2018-07-06T01:02:38.851Z,10.53
2018-07-06T01:05:25.661Z,10.70
2018-07-06T01:08:12.540Z,10.50
2018-07-06T01:10:53.148Z,9.67
2018-07-06T01:13:39.797Z,9.83
2018-07-06T01:16:26.657Z,9.67
2018-07-06T01:19:13.422Z,10.23
2018-07-06T01:22:00.753Z,10.30
2018-07-06T01:24:47.933Z,10.23
2018-07-06T01:27:34.858Z,10.53
2018-07-06T01:30:21.585Z,11.10
2018-07-06T01:33:08.672Z,10.20
2018-07-06T01:35:55.788Z,10.20
2018-07-06T01:38:43.214Z,10.53
2018-07-06T01:41:30.232Z,10.97
2018-07-06T01:44:17.282Z,9.87
2018-07-06T01:47:04.133Z,10.90
2018-07-06T01:49:51.013Z,10.07
2018-07-06T01:52:31.776Z,9.73
2018-07-06T01:55:18.377Z,17.07
2018-07-06T01:58:05.282Z,10.80
2018-07-06T02:00:52.241Z,9.83
2018-07-06T02:03:38.933Z,8.57
2018-07-06T02:06:19.951Z,9.23
2018-07-06T02:09:07.494Z,9.47
2018-07-06T02:11:55.150Z,11.13
2018-07-06T02:14:41.836Z,10.13
2018-07-06T02:17:29.037Z,10.97
2018-07-06T02:20:15.980Z,10.33
2018-07-06T02:23:02.965Z,11.63
2018-07-06T02:25:49.807Z,11.00
2018-07-06T02:28:36.449Z,10.70
2018-07-06T02:31:23.395Z,11.03
2018-07-06T02:34:10.289Z,11.67
2018-07-06T02:36:57.392Z,11.07
2018-07-06T02:39:44.751Z,11.43
2018-07-06T02:42:31.737Z,11.37
2018-07-06T02:45:18.421Z,10.70
2018-07-06T02:48:05.288Z,11.73
2018-07-06T02:50:52.544Z,10.80
2018-07-06T02:53:33.987Z,11.83
2018-07-06T02:56:20.846Z,11.77
2018-07-06T02:59:01.609Z,10.40
2018-07-06T03:01:42.593Z,10.80
2018-07-06T03:04:29.280Z,10.07
2018-07-06T03:07:16.613Z,10.70
2018-07-06T03:10:03.410Z,9.73
2018-07-06T03:12:50.533Z,10.30
2018-07-06T03:15:37.208Z,11.40
2018-07-06T03:18:24.082Z,10.90
2018-07-06T03:21:10.823Z,10.57
2018-07-06T03:23:57.746Z,10.90
2018-07-06T03:26:44.518Z,11.33
2018-07-06T03:29:31.536Z,9.77
2018-07-06T03:32:18.317Z,12.93
2018-07-06T03:35:05.196Z,14.17
2018-07-06T03:37:45.860Z,22.47
2018-07-06T03:40:26.898Z,20.37
2018-07-06T03:43:13.614Z,17.23
2018-07-06T03:46:00.599Z,19.53
2018-07-06T03:48:47.252Z,15.23
2018-07-06T03:51:34.369Z,12.53
2018-07-06T03:54:21.084Z,13.10
2018-07-06T03:57:07.936Z,13.03
2018-07-06T03:59:54.796Z,13.73
2018-07-06T04:02:41.761Z,12.97
2018-07-06T04:05:28.428Z,13.53
2018-07-06T04:08:15.449Z,13.53
2018-07-06T04:11:02.312Z,11.50
2018-07-06T04:13:49.105Z,10.67
2018-07-06T04:16:36.045Z,10.77
2018-07-06T04:19:22.934Z,10.13
2018-07-06T04:22:09.584Z,9.73
2018-07-06T04:24:56.575Z,11.03
2018-07-06T04:27:43.641Z,11.53
2018-07-06T04:30:30.920Z,11.47
2018-07-06T04:33:17.520Z,11.47
2018-07-06T04:36:04.208Z,12.80
2018-07-06T04:38:51.237Z,11.90
2018-07-06T04:41:37.991Z,11.40
2018-07-06T04:44:24.769Z,11.80
2018-07-06T04:47:11.573Z,12.60
2018-07-06T04:49:58.153Z,11.33
2018-07-06T04:52:44.817Z,11.37
2018-07-06T04:55:31.669Z,10.70
2018-07-06T04:58:18.289Z,9.80
2018-07-06T05:01:05.009Z,9.37
2018-07-06T05:03:52.064Z,8.47
2018-07-06T05:06:38.886Z,8.53
2018-07-06T05:09:25.990Z,8.97
2018-07-06T05:12:12.789Z,8.50
2018-07-06T05:15:00.703Z,10.53
2018-07-06T05:17:47.310Z,8.27
2018-07-06T05:20:34.362Z,8.40
2018-07-06T05:23:21.257Z,8.63
2018-07-06T05:26:08.558Z,9.07
2018-07-06T05:28:55.298Z,8.57
2018-07-06T05:31:42.045Z,8.20
2018-07-06T05:34:29.094Z,8.07
2018-07-06T05:37:16.102Z,7.50
2018-07-06T05:40:02.941Z,7.93
2018-07-06T05:42:49.869Z,7.17
2018-07-06T05:45:30.424Z,7.40
2018-07-06T05:48:17.181Z,7.40
2018-07-06T05:51:04.090Z,5.43
2018-07-06T05:53:51.423Z,8.83
2018-07-06T05:56:38.278Z,7.80
2018-07-06T05:59:25.551Z,6.50
2018-07-06T06:02:12.529Z,7.00
2018-07-06T06:04:53.470Z,8.40
2018-07-06T06:07:27.470Z,9.00
2018-07-06T06:09:58.295Z,7.53
2018-07-06T06:12:28.945Z,9.77
2018-07-06T06:15:00.141Z,7.00
2018-07-06T06:17:31.025Z,7.17
2018-07-06T06:20:01.744Z,8.73
2018-07-06T06:22:32.426Z,7.23
2018-07-06T06:25:02.570Z,6.80
2018-07-06T06:27:33.254Z,7.57
2018-07-06T06:30:04.082Z,8.23
2018-07-06T06:32:34.968Z,6.50
2018-07-06T06:35:05.921Z,7.63
2018-07-06T06:37:36.661Z,6.90
2018-07-06T06:40:07.523Z,7.10
2018-07-06T06:42:38.269Z,8.47
2018-07-06T06:45:09.121Z,6.40
2018-07-06T06:47:39.315Z,6.00
2018-07-06T06:50:10.166Z,6.00
2018-07-06T06:52:41.005Z,5.83
2018-07-06T06:55:12.051Z,6.30
2018-07-06T06:57:42.237Z,6.23
2018-07-06T07:00:13.065Z,6.57
2018-07-06T07:02:43.914Z,8.53
2018-07-06T07:05:14.785Z,7.03
2018-07-06T07:07:45.670Z,6.97
2018-07-06T07:10:16.520Z,7.47
2018-07-06T07:12:47.322Z,7.00
2018-07-06T07:15:18.192Z,6.70
2018-07-06T07:17:49.276Z,7.40
2018-07-06T07:20:19.641Z,8.40
2018-07-06T07:22:50.377Z,9.00
2018-07-06T07:25:21.310Z,7.60
2018-07-06T07:27:52.098Z,7.13
2018-07-06T07:30:23.031Z,8.10
2018-07-06T07:32:53.750Z,7.50
2018-07-06T07:35:23.924Z,7.97
2018-07-06T07:37:54.590Z,8.63
2018-07-06T07:40:25.539Z,7.15
2018-07-06T07:42:56.489Z,6.87
2018-07-06T07:45:26.872Z,8.45
2018-07-06T07:47:57.721Z,7.53
2018-07-06T07:50:28.493Z,7.53
2018-07-06T07:53:15.482Z,12.23
2018-07-06T07:55:46.417Z,7.37
2018-07-06T07:58:17.115Z,9.68
2018-07-06T08:00:48.154Z,7.15
2018-07-06T08:03:18.172Z,7.65
2018-07-06T08:05:49.087Z,5.92
2018-07-06T08:08:19.753Z,6.45
2018-07-06T08:10:50.545Z,7.28
2018-07-06T08:13:21.345Z,7.15
2018-07-06T08:15:53.682Z,7.17
2018-07-06T08:18:24.409Z,7.97
2018-07-06T08:20:55.258Z,7.08
2018-07-06T08:23:25.945Z,6.92
2018-07-06T08:25:56.855Z,6.30
2018-07-06T08:28:27.555Z,6.80
2018-07-06T08:30:58.469Z,8.90
2018-07-06T08:33:33.328Z,6.57
2018-07-06T08:36:24.074Z,6.63
2018-07-06T08:38:54.748Z,6.47
2018-07-06T08:41:25.076Z,6.80
2018-07-06T08:43:56.045Z,6.47
2018-07-06T08:46:26.937Z,6.10
2018-07-06T08:48:57.514Z,6.67
2018-07-06T08:51:28.317Z,7.30
2018-07-06T08:53:58.996Z,7.20
2018-07-06T08:56:29.914Z,6.20
2018-07-06T08:59:00.545Z,7.37
2018-07-06T09:01:31.345Z,7.83
2018-07-06T09:04:02.376Z,6.97
2018-07-06T09:06:33.073Z,5.97
2018-07-06T09:09:03.821Z,5.35
2018-07-06T09:11:34.089Z,5.47
2018-07-06T09:14:04.858Z,5.92
2018-07-06T09:16:35.661Z,5.20
2018-07-06T09:19:06.369Z,4.62
2018-07-06T09:21:37.674Z,4.65
2018-07-06T09:24:09.143Z,4.87
2018-07-06T09:26:39.922Z,3.83
2018-07-06T09:29:10.493Z,4.22
2018-07-06T09:31:41.205Z,3.95
2018-07-06T09:34:11.956Z,4.50
2018-07-06T09:36:43.263Z,4.62
2018-07-06T09:39:14.361Z,4.08
2018-07-06T09:41:45.170Z,4.40
2018-07-06T09:44:15.645Z,4.67
2018-07-06T09:46:46.705Z,5.87
2018-07-06T09:49:17.385Z,3.90
2018-07-06T09:51:48.212Z,4.28
2018-07-06T09:54:18.826Z,3.65
2018-07-06T09:56:49.738Z,4.30
2018-07-06T09:59:20.593Z,5.17
2018-07-06T10:01:51.470Z,3.65
2018-07-06T10:04:22.182Z,4.50
2018-07-06T10:06:52.920Z,6.10
2018-07-06T10:09:23.785Z,3.02
2018-07-06T10:11:54.565Z,3.70
2018-07-06T10:14:25.300Z,4.22
2018-07-06T10:16:56.149Z,4.75
2018-07-06T10:19:26.928Z,5.22
2018-07-06T10:21:57.479Z,3.87
2018-07-06T10:24:28.157Z,4.05
2018-07-06T10:26:59.061Z,3.25
2018-07-06T10:29:47.987Z,3.08
2018-07-06T10:32:26.473Z,4.28
2018-07-06T10:34:57.468Z,3.85
2018-07-06T10:37:28.345Z,3.92
2018-07-06T10:39:59.034Z,3.22
2018-07-06T10:42:29.894Z,5.58
2018-07-06T10:45:00.550Z,3.08
2018-07-06T10:47:31.338Z,3.45
2018-07-06T10:50:01.473Z,4.87
2018-07-06T10:52:32.230Z,3.25
2018-07-06T10:55:03.013Z,3.37
2018-07-06T10:57:33.983Z,3.75
2018-07-06T11:00:04.745Z,3.33
2018-07-06T11:02:36.141Z,3.33
2018-07-06T11:05:06.444Z,3.25
2018-07-06T11:07:37.142Z,2.92
2018-07-06T11:10:07.910Z,3.25
2018-07-06T11:12:38.725Z,3.08
2018-07-06T11:15:09.429Z,3.30
2018-07-06T11:17:40.201Z,3.47
2018-07-06T11:20:10.749Z,3.20
2018-07-06T11:22:41.592Z,3.08
2018-07-06T11:25:11.909Z,3.72
2018-07-06T11:27:42.739Z,3.10
2018-07-06T11:30:13.478Z,4.05
2018-07-06T11:32:44.261Z,3.55
2018-07-06T11:35:14.842Z,3.40
2018-07-06T11:37:45.678Z,3.37
2018-07-06T11:40:16.462Z,3.87
2018-07-06T11:42:47.414Z,2.90
2018-07-06T11:45:18.185Z,3.20
2018-07-06T11:47:48.917Z,3.30
2018-07-06T11:50:19.608Z,2.80
2018-07-06T11:52:50.420Z,3.10
2018-07-06T11:55:21.125Z,3.30
2018-07-06T11:57:52.082Z,3.08
2018-07-06T12:00:22.897Z,3.37
2018-07-06T12:02:53.470Z,3.17
2018-07-06T12:05:24.202Z,3.00
2018-07-06T12:07:54.993Z,3.35
2018-07-06T12:10:25.722Z,3.30
2018-07-06T12:12:56.705Z,3.33
2018-07-06T12:15:27.299Z,4.08
2018-07-06T12:17:58.226Z,3.08
2018-07-06T12:20:28.844Z,3.40
2018-07-06T12:22:59.717Z,3.10
2018-07-06T12:25:30.429Z,2.90
2018-07-06T12:28:01.395Z,3.90
2018-07-06T12:30:31.990Z,3.40
2018-07-06T12:33:02.977Z,4.75
2018-07-06T12:35:33.769Z,3.47
2018-07-06T12:38:04.545Z,3.70
2018-07-06T12:40:35.185Z,8.53
2018-07-06T12:43:06.110Z,4.37
2018-07-06T12:45:36.962Z,3.65
2018-07-06T12:48:07.747Z,3.60
2018-07-06T12:50:38.481Z,4.58
2018-07-06T12:53:09.357Z,4.28
2018-07-06T12:55:40.050Z,5.30
2018-07-06T12:58:10.860Z,4.92
2018-07-06T13:00:41.624Z,4.30
2018-07-06T13:03:12.613Z,6.45
2018-07-06T13:05:43.294Z,3.65
2018-07-06T13:08:14.173Z,6.80
2018-07-06T13:10:44.785Z,4.03
2018-07-06T13:13:14.982Z,5.22
2018-07-06T13:15:45.556Z,3.67
2018-07-06T13:18:16.598Z,3.72
2018-07-06T13:20:47.214Z,3.35
2018-07-06T13:23:18.045Z,3.95
2018-07-06T13:25:48.579Z,8.80
2018-07-06T13:28:20.446Z,3.40
2018-07-06T13:30:51.141Z,3.92
2018-07-06T13:33:22.051Z,4.58
2018-07-06T13:35:52.280Z,4.62
2018-07-06T13:38:23.145Z,3.70
2018-07-06T13:40:53.879Z,4.08
2018-07-06T13:43:24.704Z,4.12
2018-07-06T13:45:55.669Z,3.80
2018-07-06T13:48:26.429Z,4.20
2018-07-06T13:50:57.132Z,3.62
2018-07-06T13:53:27.822Z,3.87
2018-07-06T13:55:58.710Z,4.10
2018-07-06T13:58:29.454Z,4.25
2018-07-06T14:01:00.146Z,6.42
2018-07-06T14:03:30.906Z,5.05
2018-07-06T14:06:01.680Z,5.00
2018-07-06T14:08:32.370Z,4.35
2018-07-06T14:11:02.918Z,4.55
2018-07-06T14:13:33.625Z,5.12
2018-07-06T14:16:04.302Z,4.28
2018-07-06T14:18:35.165Z,7.37
2018-07-06T14:21:05.858Z,6.45
2018-07-06T14:23:36.634Z,5.83
2018-07-06T14:26:07.352Z,5.95
2018-07-06T14:28:38.294Z,5.80
2018-07-06T14:31:08.524Z,5.72
2018-07-06T14:33:38.737Z,5.62
2018-07-06T14:36:08.877Z,5.85
2018-07-06T14:38:39.208Z,7.15
2018-07-06T14:41:10.122Z,6.42
2018-07-06T14:43:40.841Z,6.17
2018-07-06T14:46:11.990Z,6.75
2018-07-06T14:48:42.185Z,6.80
2018-07-06T14:51:12.906Z,5.85
2018-07-06T14:53:43.609Z,6.33
2018-07-06T14:56:14.673Z,6.42
2018-07-06T14:58:45.266Z,6.62
2018-07-06T15:01:16.117Z,6.05
2018-07-06T15:03:46.845Z,7.17
2018-07-06T15:06:18.195Z,6.20
2018-07-06T15:08:48.885Z,5.70
2018-07-06T15:11:19.090Z,7.47
2018-07-06T15:13:49.745Z,8.90
2018-07-06T15:16:20.584Z,9.70
2018-07-06T15:18:50.984Z,10.72
2018-07-06T15:21:21.400Z,6.78
2018-07-06T15:23:51.942Z,7.17
2018-07-06T15:26:22.273Z,11.35
2018-07-06T15:28:53.153Z,6.35
2018-07-06T15:31:23.870Z,7.05
2018-07-06T15:33:54.473Z,8.00
2018-07-06T15:36:25.214Z,7.13
2018-07-06T15:38:55.948Z,8.13
2018-07-06T15:41:26.585Z,13.77
2018-07-06T15:43:57.430Z,8.47
2018-07-06T15:46:28.246Z,7.90
2018-07-06T15:48:59.637Z,9.00
2018-07-06T15:51:30.413Z,8.57
2018-07-06T15:54:00.589Z,8.53
2018-07-06T15:56:31.499Z,7.80
2018-07-06T15:59:02.869Z,11.12
2018-07-06T16:01:34.200Z,7.42
2018-07-06T16:04:05.187Z,7.10
2018-07-06T16:06:36.925Z,7.42
2018-07-06T16:09:08.295Z,7.10
2018-07-06T16:11:39.067Z,7.57
2018-07-06T16:14:10.094Z,8.10
2018-07-06T16:16:40.813Z,8.43
2018-07-06T16:19:11.701Z,8.63
2018-07-06T16:21:42.454Z,8.88
2018-07-06T16:24:13.408Z,8.88
2018-07-06T16:26:44.297Z,9.10
2018-07-06T16:29:15.072Z,8.40
2018-07-06T16:31:45.740Z,9.33
2018-07-06T16:34:16.506Z,9.60
2018-07-06T16:36:47.289Z,10.20
2018-07-06T16:39:18.221Z,10.37
2018-07-06T16:41:48.818Z,9.87
2018-07-06T16:44:19.662Z,9.03
2018-07-06T16:46:50.509Z,10.13
2018-07-06T16:49:21.407Z,9.13
2018-07-06T16:51:52.104Z,8.77
2018-07-06T16:54:22.785Z,9.73
2018-07-06T16:56:53.452Z,8.87
2018-07-06T16:59:24.498Z,11.53
2018-07-06T17:01:55.186Z,8.07
2018-07-06T17:04:26.062Z,10.17
2018-07-06T17:06:56.803Z,8.67
2018-07-06T17:09:27.597Z,11.37
2018-07-06T17:11:58.262Z,12.07
2018-07-06T17:14:29.040Z,11.90
2018-07-06T17:16:59.773Z,10.60
2018-07-06T17:19:30.497Z,8.98
2018-07-06T17:22:01.268Z,5.43
2018-07-06T17:24:32.077Z,5.87
2018-07-06T17:27:02.818Z,5.47
2018-07-06T17:29:33.750Z,5.33
2018-07-06T17:32:04.439Z,5.33
2018-07-06T17:34:35.305Z,4.97
2018-07-06T17:37:06.198Z,5.30
2018-07-06T17:39:36.969Z,5.63
2018-07-06T17:42:07.676Z,5.60
2018-07-06T17:44:38.377Z,5.43
2018-07-06T17:47:09.038Z,5.77
2018-07-06T17:49:39.739Z,6.53
2018-07-06T17:52:10.209Z,7.13
2018-07-06T17:54:41.081Z,9.00
2018-07-06T17:57:11.216Z,7.13
2018-07-06T17:59:41.945Z,5.87
2018-07-06T18:02:12.637Z,6.10
2018-07-06T18:04:43.413Z,6.17
2018-07-06T18:07:14.297Z,6.57
2018-07-06T18:09:45.062Z,6.53
2018-07-06T18:12:15.837Z,6.67
2018-07-06T18:14:46.653Z,6.80
2018-07-06T18:17:17.375Z,6.50
2018-07-06T18:19:47.523Z,5.90
2018-07-06T18:22:18.110Z,6.70
2018-07-06T18:24:48.873Z,6.73
2018-07-06T18:27:19.483Z,10.83
2018-07-06T18:29:49.681Z,22.73
2018-07-06T18:32:20.405Z,13.93
2018-07-06T18:34:51.270Z,11.40
2018-07-06T18:37:21.491Z,9.83
2018-07-06T18:39:52.453Z,19.67
2018-07-06T18:42:23.127Z,9.03
2018-07-06T18:44:53.938Z,6.67
2018-07-06T18:47:24.601Z,5.80
2018-07-06T18:49:55.225Z,6.90
2018-07-06T18:52:25.960Z,6.33
2018-07-06T18:54:57.103Z,6.13
2018-07-06T18:57:27.737Z,5.93
2018-07-06T18:59:58.737Z,6.33
2018-07-06T19:02:29.413Z,5.67
2018-07-06T19:05:00.286Z,5.90
2018-07-06T19:07:30.965Z,5.83
2018-07-06T19:10:01.755Z,5.97
2018-07-06T19:12:32.525Z,5.53
2018-07-06T19:15:03.221Z,6.13
2018-07-06T19:17:33.399Z,6.30
2018-07-06T19:20:04.313Z,6.47
2018-07-06T19:22:34.964Z,6.23
2018-07-06T19:25:05.654Z,6.27
2018-07-06T19:27:36.000Z,5.87
2018-07-06T19:30:06.963Z,5.83
2018-07-06T19:32:37.587Z,5.97
2018-07-06T19:35:08.145Z,5.83
2018-07-06T19:37:38.773Z,5.43
2018-07-06T19:40:09.995Z,5.60
2018-07-06T19:42:40.733Z,6.07
2018-07-06T19:45:11.291Z,5.97
2018-07-06T19:47:42.072Z,5.87
2018-07-06T19:50:13.841Z,5.80
2018-07-06T19:52:44.544Z,6.10
2018-07-06T19:55:15.276Z,5.73
2018-07-06T19:57:46.024Z,6.13
2018-07-06T20:00:16.984Z,5.73
2018-07-06T20:02:47.676Z,5.97
2018-07-06T20:05:18.610Z,5.73
2018-07-06T20:07:49.250Z,6.43
2018-07-06T20:10:20.430Z,5.93
2018-07-06T20:12:50.906Z,6.33
2018-07-06T20:15:21.233Z,6.40
2018-07-06T20:17:52.025Z,6.57
2018-07-06T20:20:22.930Z,5.80
2018-07-06T20:22:53.853Z,6.00
2018-07-06T20:25:24.554Z,6.33
2018-07-06T20:27:54.593Z,5.70
2018-07-06T20:30:25.125Z,6.03
2018-07-06T20:32:55.704Z,6.63
2018-07-06T20:35:26.466Z,6.87
2018-07-06T20:37:57.158Z,7.10
2018-07-06T20:40:28.014Z,7.27
2018-07-06T20:42:58.608Z,7.57
2018-07-06T20:45:30.158Z,12.27
2018-07-06T20:48:00.958Z,12.70
2018-07-06T20:50:31.897Z,9.27
2018-07-06T20:53:02.665Z,9.63
2018-07-06T20:55:33.410Z,10.10
2018-07-06T20:58:04.192Z,11.00
2018-07-06T21:00:34.970Z,10.63
2018-07-06T21:03:05.750Z,9.40
2018-07-06T21:05:36.650Z,16.47
2018-07-06T21:08:07.527Z,13.37
2018-07-06T21:10:38.388Z,12.10
2018-07-06T21:13:09.107Z,9.10
2018-07-06T21:15:39.890Z,9.47
2018-07-06T21:18:10.617Z,8.73
2018-07-06T21:20:41.790Z,8.70
2018-07-06T21:23:11.756Z,8.53
2018-07-06T21:25:43.170Z,8.43
2018-07-06T21:28:13.252Z,8.33
2018-07-06T21:30:44.150Z,8.77
2018-07-06T21:33:14.915Z,10.27
2018-07-06T21:35:45.725Z,8.63
2018-07-06T21:38:16.383Z,9.23
2018-07-06T21:40:47.322Z,10.93
2018-07-06T21:43:18.101Z,12.13
2018-07-06T21:45:48.845Z,11.87
2018-07-06T21:48:19.521Z,9.77
2018-07-06T21:50:50.877Z,9.90
2018-07-06T21:53:21.587Z,8.57
2018-07-06T21:55:57.433Z,8.97
2018-07-06T21:58:28.170Z,9.50
2018-07-06T22:00:59.037Z,8.07
2018-07-06T22:03:29.571Z,9.33
2018-07-06T22:06:00.254Z,8.63
2018-07-06T22:08:31.349Z,11.57
2018-07-06T22:11:02.177Z,12.97
2018-07-06T22:13:32.805Z,11.77
2018-07-06T22:16:04.623Z,10.67
2018-07-06T22:18:35.385Z,10.97
2018-07-06T22:21:06.238Z,11.00
2018-07-06T22:23:36.907Z,11.50
2018-07-06T22:26:07.693Z,10.33
2018-07-06T22:28:38.349Z,10.93
2018-07-06T22:31:09.470Z,11.70
2018-07-06T22:33:40.121Z,10.07
2018-07-06T22:36:10.918Z,9.63
2018-07-06T22:38:41.566Z,9.37
2018-07-06T22:41:12.453Z,9.77
2018-07-06T22:43:44.718Z,8.93
2018-07-06T22:46:15.529Z,9.63
2018-07-06T22:48:46.158Z,9.80
2018-07-06T22:51:16.953Z,10.87
2018-07-06T22:53:47.601Z,9.90
2018-07-06T22:56:18.205Z,11.53
2018-07-06T22:58:48.866Z,11.13
2018-07-06T23:01:19.662Z,11.00
2018-07-06T23:03:50.379Z,10.80
2018-07-06T23:06:21.217Z,9.63
2018-07-06T23:08:51.960Z,9.83
2018-07-06T23:11:22.623Z,9.77
2018-07-06T23:13:53.267Z,9.87
2018-07-06T23:16:23.933Z,9.87
2018-07-06T23:18:54.132Z,9.67
2018-07-06T23:21:25.029Z,9.63
2018-07-06T23:23:55.689Z,9.13
2018-07-06T23:26:26.526Z,10.03
2018-07-06T23:28:57.250Z,9.93
2018-07-06T23:31:28.167Z,10.43
2018-07-06T23:33:58.970Z,10.50
2018-07-06T23:36:29.762Z,11.57
2018-07-06T23:39:00.277Z,10.77
2018-07-06T23:41:31.201Z,11.50
2018-07-06T23:44:01.961Z,10.70
2018-07-06T23:46:32.741Z,10.67
2018-07-06T23:49:02.902Z,10.80
2018-07-06T23:51:33.423Z,11.20
2018-07-06T23:54:04.098Z,11.67
2018-07-06T23:56:34.753Z,11.03
2018-07-06T23:59:05.160Z,12.00
